Time;durP1;ratioP1;P1;durP2;ratioP2;P2;SDS_P1;SDS_P2;PMS_P1;PMS_P2;Temp;Humidity;BMP_temperature;BMP_pressure;BME280_temperature;BME280_humidity;BME280_pressure;Samples;Min_cycle;Max_cycle;Signal;HPM_P1;HPM_P2
2023/03/12 00:00:18;;;;;;;6.33;3.10;;;-0.20;99.90;;;;;;5083957;28;20049;-84
2023/03/12 00:02:44;;;;;;;4.60;3.03;;;-0.20;99.90;;;;;;5104178;28;20442;-84
2023/03/12 00:05:10;;;;;;;8.00;3.00;;;-0.20;99.90;;;;;;5121003;27;20036;-84
2023/03/12 00:07:35;;;;;;;5.07;3.13;;;-0.20;99.90;;;;;;5107759;28;20115;-84
2023/03/12 00:10:03;;;;;;;5.67;3.17;;;-0.20;99.90;;;;;;5108074;28;20035;-84
2023/03/12 00:12:28;;;;;;;6.40;3.00;;;-0.20;99.90;;;;;;5090014;28;20039;-84
2023/03/12 00:14:54;;;;;;;5.27;3.30;;;-0.30;99.90;;;;;;5128937;27;20093;-84
2023/03/12 00:17:19;;;;;;;4.37;2.70;;;-0.30;99.90;;;;;;5101633;28;20039;-84
2023/03/12 00:19:45;;;;;;;8.00;3.30;;;-0.30;99.90;;;;;;5120418;27;20050;-84
2023/03/12 00:22:10;;;;;;;6.10;3.40;;;-0.30;99.90;;;;;;5127844;27;20038;-84
2023/03/12 00:24:36;;;;;;;7.00;4.87;;;-0.30;99.90;;;;;;5110467;28;20406;-84
2023/03/12 00:27:01;;;;;;;9.57;5.23;;;-0.30;99.90;;;;;;5141472;27;20566;-84
2023/03/12 00:29:27;;;;;;;10.00;5.97;;;-0.40;99.90;;;;;;5141715;27;20044;-84
2023/03/12 00:31:53;;;;;;;9.97;6.37;;;-0.40;99.90;;;;;;5110701;28;20039;-83
2023/03/12 00:34:18;;;;;;;9.83;7.77;;;-0.40;99.90;;;;;;5107044;28;20083;-84
2023/03/12 00:36:44;;;;;;;9.60;7.47;;;-0.40;99.90;;;;;;5105518;28;20039;-84
2023/03/12 00:39:09;;;;;;;9.67;7.20;;;-0.40;99.90;;;;;;5110460;28;20047;-83
2023/03/12 00:41:35;;;;;;;9.57;6.20;;;-0.50;99.90;;;;;;5136742;27;20506;-84
2023/03/12 00:44:00;;;;;;;8.17;5.87;;;-0.50;99.90;;;;;;5121168;27;20084;-84
2023/03/12 00:46:26;;;;;;;9.00;5.90;;;-0.50;99.90;;;;;;5093198;28;20445;-84
2023/03/12 00:48:52;;;;;;;7.13;5.50;;;-0.50;99.90;;;;;;5106673;28;20040;-84
2023/03/12 00:51:17;;;;;;;9.27;5.57;;;-0.50;99.90;;;;;;5093328;28;20054;-84
2023/03/12 00:53:43;;;;;;;8.30;5.37;;;-0.50;99.90;;;;;;5110463;28;20428;-84
2023/03/12 00:56:09;;;;;;;10.17;5.30;;;-0.60;99.90;;;;;;5109741;28;20074;-83
2023/03/12 00:58:34;;;;;;;8.03;5.27;;;-0.60;99.90;;;;;;5144610;27;20457;-84
2023/03/12 01:01:00;;;;;;;9.53;5.40;;;-0.60;99.90;;;;;;5138799;27;20046;-83
2023/03/12 01:03:26;;;;;;;9.07;5.10;;;-0.60;99.90;;;;;;5104841;28;20043;-84
2023/03/12 01:05:54;;;;;;;7.63;5.20;;;-0.70;99.90;;;;;;5078056;28;20031;-83
2023/03/12 01:08:21;;;;;;;8.20;4.83;;;-0.60;99.90;;;;;;5102656;28;20047;-83
2023/03/12 01:10:47;;;;;;;8.47;5.50;;;-0.60;99.90;;;;;;5106819;28;20032;-83
2023/03/12 01:13:12;;;;;;;8.73;5.80;;;-0.60;99.90;;;;;;5136982;27;20063;-83
2023/03/12 01:15:38;;;;;;;8.77;5.50;;;-0.70;99.90;;;;;;5142303;27;20040;-83
2023/03/12 01:18:04;;;;;;;14.13;5.50;;;-0.70;99.90;;;;;;5104780;28;20410;-83
2023/03/12 01:20:29;;;;;;;11.27;5.73;;;-0.70;99.90;;;;;;5103409;28;20520;-82
2023/03/12 01:22:55;;;;;;;8.47;5.53;;;-0.70;99.90;;;;;;5085382;28;20067;-83
2023/03/12 01:25:20;;;;;;;9.63;5.67;;;-0.70;99.90;;;;;;5126185;27;20035;-82
2023/03/12 01:27:46;;;;;;;9.60;5.60;;;-0.70;99.90;;;;;;5140417;27;20402;-83
2023/03/12 01:30:12;;;;;;;8.70;5.73;;;-0.70;99.90;;;;;;5127049;27;20465;-83
2023/03/12 01:32:38;;;;;;;7.60;5.37;;;-0.70;99.90;;;;;;5095273;28;20043;-82
2023/03/12 01:35:04;;;;;;;10.20;6.03;;;-0.70;99.90;;;;;;5140689;27;20058;-82
2023/03/12 01:37:31;;;;;;;8.50;5.63;;;-0.70;99.90;;;;;;5094195;28;20446;-82
2023/03/12 01:39:56;;;;;;;7.90;5.73;;;-0.70;99.90;;;;;;5108262;28;20130;-82
2023/03/12 01:42:22;;;;;;;8.77;5.70;;;-0.70;99.90;;;;;;5148337;27;20123;-82
2023/03/12 01:44:57;;;;;;;10.67;6.20;;;-0.70;99.90;;;;;;5145482;27;20042;-83
2023/03/12 01:47:24;;;;;;;8.87;6.20;;;-0.60;99.90;;;;;;5114418;28;20032;-82
2023/03/12 01:49:51;;;;;;;8.53;5.37;;;-0.50;99.90;;;;;;5112396;28;20110;-82
2023/03/12 01:52:46;;;;;;;9.10;6.17;;;-0.50;99.90;;;;;;5110398;28;20058;-81
2023/03/12 01:55:14;;;;;;;7.13;5.20;;;-0.50;99.90;;;;;;5124377;27;20517;-82
2023/03/12 01:57:46;;;;;;;9.43;4.80;;;-0.40;99.90;;;;;;5113326;28;20088;-82
2023/03/12 02:00:15;;;;;;;7.33;4.80;;;-0.40;99.90;;;;;;5090019;28;20051;-81
2023/03/12 02:02:43;;;;;;;7.03;4.87;;;-0.40;99.90;;;;;;5110904;28;20077;-81
2023/03/12 02:05:22;;;;;;;7.20;4.47;;;-0.40;99.90;;;;;;5114441;28;20397;-81
2023/03/12 02:07:48;;;;;;;11.80;5.27;;;-0.40;99.90;;;;;;5106882;28;20035;-80
2023/03/12 02:10:15;;;;;;;6.47;4.33;;;-0.40;99.90;;;;;;5131534;27;20031;-81
2023/03/12 02:12:40;;;;;;;7.23;4.13;;;-0.40;99.90;;;;;;5113609;28;20050;-81
2023/03/12 02:15:06;;;;;;;10.23;4.50;;;-0.40;99.90;;;;;;5141884;27;20126;-80
2023/03/12 02:17:32;;;;;;;7.10;4.50;;;-0.40;99.90;;;;;;5106725;28;20036;-81
2023/03/12 02:20:11;;;;;;;6.53;4.10;;;-0.30;99.90;;;;;;5146917;27;20092;-81
2023/03/12 02:22:41;;;;;;;5.83;3.90;;;-0.30;99.90;;;;;;5090842;28;20560;-80
2023/03/12 02:25:29;;;;;;;7.97;4.43;;;-0.30;99.90;;;;;;5106147;28;20074;-83
2023/03/12 02:27:57;;;;;;;6.13;4.13;;;-0.40;99.90;;;;;;5105510;28;20490;-80
2023/03/12 02:30:23;;;;;;;8.83;4.67;;;-0.40;99.90;;;;;;5110231;28;20406;-82
2023/03/12 02:32:50;;;;;;;5.87;3.97;;;-0.30;99.90;;;;;;5108665;28;20039;-80
2023/03/12 02:35:16;;;;;;;7.80;4.10;;;-0.30;99.90;;;;;;5090857;28;20085;-81
2023/03/12 02:37:49;;;;;;;4.83;3.60;;;-0.30;99.90;;;;;;5110477;28;20036;-81
2023/03/12 02:40:27;;;;;;;9.52;4.55;;;-0.30;99.90;;;;;;5091291;28;20075;-80
2023/03/12 02:42:54;;;;;;;9.23;3.93;;;-0.30;99.90;;;;;;5119850;27;20474;-81
2023/03/12 02:45:20;;;;;;;6.60;4.03;;;-0.30;99.90;;;;;;5104401;28;20050;-81
2023/03/12 02:47:45;;;;;;;5.93;4.03;;;-0.20;99.90;;;;;;5146139;27;20035;-81
2023/03/12 02:50:11;;;;;;;7.97;3.87;;;-0.30;99.90;;;;;;5090799;28;20545;-82
2023/03/12 02:52:37;;;;;;;7.80;4.23;;;-0.20;99.90;;;;;;5104600;28;20039;-82
2023/03/12 02:55:04;;;;;;;6.87;4.40;;;-0.30;99.90;;;;;;5105686;28;20035;-80
2023/03/12 02:57:29;;;;;;;7.37;4.53;;;-0.20;99.90;;;;;;5090700;28;20035;-81
2023/03/12 02:59:55;;;;;;;6.87;4.90;;;-0.20;99.90;;;;;;5141170;27;20035;-81
2023/03/12 03:02:21;;;;;;;7.77;4.27;;;-0.20;99.90;;;;;;5139975;27;20040;-80
2023/03/12 03:04:46;;;;;;;8.23;5.00;;;-0.20;99.90;;;;;;5144661;27;20043;-80
2023/03/12 03:07:13;;;;;;;7.53;4.43;;;-0.20;99.90;;;;;;5142975;27;20031;-80
2023/03/12 03:09:39;;;;;;;9.17;4.47;;;-0.20;99.90;;;;;;5106769;28;20483;-80
2023/03/12 03:12:05;;;;;;;8.47;4.67;;;-0.20;99.90;;;;;;5108108;28;20066;-80
2023/03/12 03:14:30;;;;;;;6.33;4.50;;;-0.10;99.90;;;;;;5126513;27;20415;-80
2023/03/12 03:16:56;;;;;;;7.43;4.60;;;-0.10;99.90;;;;;;5109479;28;20400;-80
2023/03/12 03:19:21;;;;;;;8.40;4.50;;;-0.10;99.90;;;;;;5142556;27;20123;-81
2023/03/12 03:21:47;;;;;;;6.30;4.10;;;0.00;99.90;;;;;;5123906;27;20039;-80
2023/03/12 03:24:13;;;;;;;7.70;4.13;;;-0.10;99.90;;;;;;5123896;27;20032;-80
2023/03/12 03:26:38;;;;;;;7.00;4.17;;;0.00;99.90;;;;;;5092882;28;20067;-80
2023/03/12 03:29:04;;;;;;;10.20;4.87;;;0.00;99.90;;;;;;5108229;28;20032;-80
2023/03/12 03:31:30;;;;;;;6.60;3.93;;;0.00;99.90;;;;;;5108849;28;20035;-81
2023/03/12 03:33:55;;;;;;;4.97;3.97;;;0.00;99.90;;;;;;5090193;28;20063;-82
2023/03/12 03:36:22;;;;;;;6.87;4.00;;;0.00;99.90;;;;;;5087607;28;20032;-80
2023/03/12 03:38:49;;;;;;;8.43;4.20;;;0.00;99.90;;;;;;5107408;28;20498;-80
2023/03/12 03:41:19;;;;;;;6.33;4.13;;;0.10;99.90;;;;;;5103392;28;20362;-80
2023/03/12 03:43:45;;;;;;;6.90;3.90;;;0.00;99.90;;;;;;5088231;28;20520;-80
2023/03/12 03:46:12;;;;;;;9.17;4.03;;;0.00;99.90;;;;;;5111035;28;20043;-81
2023/03/12 03:48:37;;;;;;;6.73;3.97;;;0.10;99.90;;;;;;5106980;28;20028;-80
2023/03/12 03:51:06;;;;;;;7.73;3.90;;;0.10;99.90;;;;;;5142557;27;20415;-80
2023/03/12 03:53:32;;;;;;;5.33;3.40;;;0.10;99.90;;;;;;5108843;28;20550;-80
2023/03/12 03:55:58;;;;;;;7.90;3.80;;;0.10;99.90;;;;;;5105025;28;20039;-80
2023/03/12 03:58:23;;;;;;;7.00;4.07;;;0.10;99.90;;;;;;5105019;28;20085;-80
2023/03/12 04:00:49;;;;;;;7.80;4.20;;;0.20;99.90;;;;;;5109612;28;20042;-80
2023/03/12 04:03:15;;;;;;;6.70;3.73;;;0.10;99.90;;;;;;5106115;28;20456;-80
2023/03/12 04:05:44;;;;;;;4.57;3.40;;;0.20;99.90;;;;;;5106236;28;20029;-80
2023/03/12 04:08:11;;;;;;;7.57;3.90;;;0.20;99.90;;;;;;5108416;28;20071;-82
2023/03/12 04:10:36;;;;;;;5.53;3.67;;;0.20;99.90;;;;;;5107699;28;20089;-81
2023/03/12 04:13:02;;;;;;;6.33;3.77;;;0.20;99.90;;;;;;5140886;27;20044;-81
2023/03/12 04:15:27;;;;;;;9.10;3.90;;;0.20;99.90;;;;;;5107795;28;20039;-81
2023/03/12 04:17:53;;;;;;;6.20;3.57;;;0.20;99.90;;;;;;5107080;28;20039;-80
2023/03/12 04:20:19;;;;;;;8.43;3.97;;;0.20;99.90;;;;;;5106015;28;20088;-82
2023/03/12 04:22:44;;;;;;;5.30;3.50;;;0.20;99.90;;;;;;5137611;27;20088;-82
2023/03/12 04:25:10;;;;;;;6.27;3.90;;;0.30;99.90;;;;;;5110558;28;20027;-81
2023/03/12 04:27:36;;;;;;;8.20;3.80;;;0.30;99.90;;;;;;5106778;28;20130;-82
2023/03/12 04:30:02;;;;;;;6.03;3.67;;;0.30;99.90;;;;;;5141108;27;20060;-81
2023/03/12 04:32:28;;;;;;;6.97;3.67;;;0.20;99.90;;;;;;5101615;28;20072;-82
2023/03/12 04:34:53;;;;;;;5.23;3.83;;;0.20;99.90;;;;;;5141307;27;20553;-82
2023/03/12 04:37:19;;;;;;;6.13;3.83;;;0.20;99.90;;;;;;5141123;27;20074;-82
2023/03/12 04:39:44;;;;;;;7.93;4.23;;;0.20;99.90;;;;;;5110968;28;20433;-82
2023/03/12 04:42:10;;;;;;;5.93;3.70;;;0.20;99.90;;;;;;5106044;28;20047;-82
2023/03/12 04:44:36;;;;;;;6.30;4.10;;;0.20;99.90;;;;;;5138106;27;20498;-82
2023/03/12 04:47:03;;;;;;;6.10;3.97;;;0.20;99.90;;;;;;5138056;27;20118;-82
2023/03/12 04:49:29;;;;;;;6.83;3.87;;;0.20;99.90;;;;;;5103331;28;20055;-83
2023/03/12 04:51:54;;;;;;;9.23;4.70;;;0.30;99.90;;;;;;5109585;28;20089;-82
2023/03/12 04:54:21;;;;;;;7.60;4.30;;;0.20;99.90;;;;;;5141028;27;20031;-82
2023/03/12 04:56:47;;;;;;;6.97;4.10;;;0.30;99.90;;;;;;5107876;28;20061;-82
2023/03/12 04:59:13;;;;;;;5.83;4.03;;;0.30;99.90;;;;;;5104871;28;20510;-83
2023/03/12 05:01:39;;;;;;;5.73;3.83;;;0.30;99.90;;;;;;5105206;28;20078;-83
2023/03/12 05:04:05;;;;;;;8.40;4.20;;;0.30;99.90;;;;;;5106827;28;20040;-83
2023/03/12 05:06:31;;;;;;;7.50;4.40;;;0.30;99.90;;;;;;5108451;28;20494;-83
2023/03/12 05:08:57;;;;;;;7.33;4.00;;;0.30;99.90;;;;;;5104219;28;20040;-83
2023/03/12 05:11:23;;;;;;;7.60;4.10;;;0.30;99.90;;;;;;5143835;27;20093;-83
2023/03/12 05:13:49;;;;;;;5.60;4.17;;;0.30;99.90;;;;;;5106964;28;20047;-83
2023/03/12 05:16:15;;;;;;;5.67;3.83;;;0.30;99.90;;;;;;5134010;27;20039;-83
2023/03/12 05:18:41;;;;;;;7.20;4.27;;;0.30;99.90;;;;;;5103146;28;20143;-82
2023/03/12 05:21:18;;;;;;;6.77;4.00;;;0.40;99.90;;;;;;5109509;28;20551;-83
2023/03/12 05:23:44;;;;;;;8.40;4.30;;;0.40;99.90;;;;;;5090582;28;20032;-83
2023/03/12 05:26:19;;;;;;;8.67;4.00;;;0.40;99.90;;;;;;5090840;28;20418;-83
2023/03/12 05:28:45;;;;;;;8.10;4.17;;;0.50;99.90;;;;;;5109226;28;20407;-83
2023/03/12 05:31:11;;;;;;;7.00;4.00;;;0.50;99.90;;;;;;5102137;28;20032;-83
2023/03/12 05:33:37;;;;;;;7.70;4.50;;;0.50;99.90;;;;;;5108004;28;20040;-83
2023/03/12 05:36:03;;;;;;;7.03;3.70;;;0.50;99.90;;;;;;5103222;28;20031;-84
2023/03/12 05:38:28;;;;;;;7.13;3.97;;;0.50;99.90;;;;;;5101766;28;20055;-84
2023/03/12 05:40:56;;;;;;;9.23;4.03;;;0.50;99.90;;;;;;5138220;27;20043;-83
2023/03/12 05:43:22;;;;;;;7.53;4.50;;;0.50;99.90;;;;;;5104969;28;20032;-84
2023/03/12 05:45:48;;;;;;;7.10;3.77;;;0.50;99.90;;;;;;5092257;28;20039;-84
2023/03/12 05:48:14;;;;;;;6.70;3.87;;;0.50;99.90;;;;;;5104622;28;20072;-83
2023/03/12 05:50:40;;;;;;;7.17;4.03;;;0.50;99.90;;;;;;5108171;28;20519;-84
2023/03/12 05:53:05;;;;;;;7.67;3.83;;;0.50;99.90;;;;;;5124631;27;20048;-83
2023/03/12 05:55:35;;;;;;;7.53;4.47;;;0.50;99.90;;;;;;5123465;27;20071;-83
2023/03/12 05:58:02;;;;;;;7.10;4.40;;;0.50;99.90;;;;;;5104789;28;20054;-83
2023/03/12 06:00:28;;;;;;;7.67;4.13;;;0.50;99.90;;;;;;5104123;28;20502;-83
2023/03/12 06:02:53;;;;;;;9.63;4.20;;;0.60;99.90;;;;;;5135412;27;20071;-83
2023/03/12 06:05:19;;;;;;;6.30;4.17;;;0.60;99.90;;;;;;5135970;27;20067;-83
2023/03/12 06:07:45;;;;;;;7.83;4.47;;;0.60;99.90;;;;;;5106482;28;20047;-83
2023/03/12 06:10:10;;;;;;;7.50;4.77;;;0.60;99.90;;;;;;5137991;27;20570;-83
2023/03/12 06:12:36;;;;;;;6.93;4.23;;;0.60;99.90;;;;;;5139712;27;20081;-83
2023/03/12 06:15:02;;;;;;;9.47;4.57;;;0.60;99.90;;;;;;5145196;27;20049;-83
2023/03/12 06:17:29;;;;;;;11.30;4.80;;;0.60;99.90;;;;;;5095849;28;20075;-83
2023/03/12 06:19:54;;;;;;;8.67;4.93;;;0.60;99.90;;;;;;5105602;28;20085;-83
2023/03/12 06:22:20;;;;;;;7.30;4.57;;;0.70;99.90;;;;;;5087900;28;20075;-83
2023/03/12 06:24:46;;;;;;;6.80;4.37;;;0.70;99.90;;;;;;5107676;28;20392;-83
2023/03/12 06:27:13;;;;;;;8.33;4.67;;;0.70;99.90;;;;;;5112508;28;20168;-83
2023/03/12 06:29:38;;;;;;;10.60;4.80;;;0.70;99.90;;;;;;5106336;28;20063;-83
2023/03/12 06:32:04;;;;;;;9.63;5.03;;;0.70;99.90;;;;;;5092641;28;20125;-83
2023/03/12 06:34:30;;;;;;;7.10;4.90;;;0.70;99.90;;;;;;5147360;27;20173;-83
2023/03/12 07:21:22;;;;;;;11.00;6.20;;;1.10;99.90;;;;;;5101102;28;20510;-82
2023/03/12 07:23:49;;;;;;;11.10;7.37;;;1.10;99.90;;;;;;5109921;28;20036;-81
2023/03/12 07:26:16;;;;;;;11.00;6.97;;;1.10;99.90;;;;;;5099962;28;20085;-81
2023/03/12 07:28:42;;;;;;;14.30;7.53;;;1.10;99.90;;;;;;5106021;28;20394;-82
2023/03/12 07:31:07;;;;;;;12.63;7.20;;;1.00;99.90;;;;;;5138829;27;20047;-81
2023/03/12 07:33:33;;;;;;;13.17;7.67;;;1.00;99.90;;;;;;5134084;27;20031;-81
2023/03/12 07:35:59;;;;;;;11.50;7.63;;;1.00;99.90;;;;;;5105528;28;20578;-82
2023/03/12 07:38:25;;;;;;;10.77;8.07;;;0.90;99.90;;;;;;5102109;28;20039;-82
2023/03/12 07:40:52;;;;;;;12.37;8.20;;;0.90;99.90;;;;;;5104658;28;20135;-81
2023/03/12 07:43:18;;;;;;;11.00;8.00;;;0.80;99.90;;;;;;5139746;27;20035;-82
2023/03/12 07:45:43;;;;;;;10.27;7.40;;;0.80;99.90;;;;;;5110951;28;20032;-82
2023/03/12 07:48:09;;;;;;;10.80;8.20;;;0.80;99.90;;;;;;5133980;27;20568;-82
2023/03/12 07:50:35;;;;;;;13.83;8.40;;;0.80;99.90;;;;;;5106862;28;20032;-82
2023/03/12 07:53:01;;;;;;;13.37;8.63;;;0.80;99.90;;;;;;5105439;28;20133;-83
2023/03/12 07:55:27;;;;;;;14.03;8.83;;;0.80;99.90;;;;;;5107726;28;20032;-82
2023/03/12 07:57:55;;;;;;;15.27;8.50;;;0.80;99.90;;;;;;5140276;27;20044;-82
2023/03/12 08:00:21;;;;;;;12.83;8.50;;;0.80;99.90;;;;;;5102258;28;20077;-82
2023/03/12 08:02:46;;;;;;;12.87;8.60;;;0.80;99.90;;;;;;5140428;27;20075;-82
2023/03/12 08:05:12;;;;;;;14.90;9.77;;;0.80;99.90;;;;;;5138173;27;20407;-82
2023/03/12 08:07:37;;;;;;;12.50;8.97;;;0.80;99.90;;;;;;5089490;28;20059;-82
2023/03/12 08:10:06;;;;;;;12.50;9.30;;;0.80;99.90;;;;;;5088087;28;20430;-82
2023/03/12 08:12:32;;;;;;;13.77;9.33;;;0.80;99.90;;;;;;5142507;27;20399;-82
2023/03/12 08:14:58;;;;;;;12.93;8.87;;;0.80;99.90;;;;;;5105260;28;20042;-82
2023/03/12 08:17:23;;;;;;;15.23;9.67;;;0.80;99.90;;;;;;5084692;28;20140;-82
2023/03/12 08:19:49;;;;;;;13.20;9.50;;;0.80;99.90;;;;;;5123548;27;20047;-82
2023/03/12 08:22:15;;;;;;;14.80;8.93;;;0.50;99.90;;;;;;5104081;28;20032;-82
2023/03/12 08:24:40;;;;;;;14.57;9.87;;;0.80;99.90;;;;;;5106228;28;20118;-82
2023/03/12 08:27:06;;;;;;;13.63;9.40;;;0.90;99.90;;;;;;5104253;28;20036;-83
2023/03/12 08:29:32;;;;;;;16.27;9.77;;;0.90;99.90;;;;;;5107610;28;20051;-83
2023/03/12 08:31:58;;;;;;;12.57;9.40;;;1.00;99.90;;;;;;5105685;28;20043;-82
2023/03/12 08:34:23;;;;;;;16.23;9.30;;;1.00;99.90;;;;;;5100784;28;20054;-82
2023/03/12 08:36:49;;;;;;;17.33;9.63;;;1.10;99.90;;;;;;5136871;27;20064;-82
2023/03/12 08:39:14;;;;;;;12.63;9.73;;;1.10;99.90;;;;;;5102624;28;20035;-82
2023/03/12 08:41:40;;;;;;;15.40;10.03;;;1.10;99.90;;;;;;5102337;28;20408;-82
2023/03/12 08:44:05;;;;;;;13.43;9.03;;;1.10;99.90;;;;;;5108983;28;20805;-81
2023/03/12 08:46:31;;;;;;;14.13;9.60;;;1.10;99.90;;;;;;5099695;28;20468;-82
2023/03/12 08:48:57;;;;;;;12.30;9.70;;;1.20;99.90;;;;;;5094952;28;20407;-81
2023/03/12 08:51:22;;;;;;;10.73;8.53;;;1.20;99.90;;;;;;5106338;28;20414;-81
2023/03/12 08:53:48;;;;;;;11.60;8.83;;;1.20;99.90;;;;;;5092100;28;20043;-81
2023/03/12 08:56:13;;;;;;;14.27;8.63;;;1.20;99.90;;;;;;5145270;27;20047;-82
2023/03/12 08:58:39;;;;;;;12.33;7.87;;;1.30;99.90;;;;;;5111345;28;20043;-81
2023/03/12 09:01:12;;;;;;;13.57;8.90;;;1.30;99.90;;;;;;5093266;28;20110;-81
2023/03/12 09:03:40;;;;;;;11.90;8.90;;;1.30;99.90;;;;;;5088341;28;20032;-82
2023/03/12 09:06:15;;;;;;;13.97;8.73;;;1.30;99.90;;;;;;5103480;28;20045;-83
2023/03/12 09:08:42;;;;;;;11.17;7.97;;;1.40;99.90;;;;;;5109811;28;20097;-81
2023/03/12 09:11:09;;;;;;;11.33;8.20;;;1.40;99.90;;;;;;5144736;27;20560;-81
2023/03/12 09:13:35;;;;;;;11.50;8.03;;;1.40;99.90;;;;;;5092857;28;20057;-82
2023/03/12 09:16:02;;;;;;;13.70;9.37;;;1.40;99.90;;;;;;5101025;28;20048;-82
2023/03/12 09:18:29;;;;;;;11.70;8.43;;;1.30;99.90;;;;;;5109937;28;20036;-83
2023/03/12 09:20:55;;;;;;;13.67;9.30;;;1.30;99.90;;;;;;5084903;28;20463;-83
2023/03/12 09:23:20;;;;;;;13.60;9.27;;;1.30;99.90;;;;;;5106188;28;20042;-82
2023/03/12 09:25:47;;;;;;;13.87;9.10;;;1.30;99.90;;;;;;5103060;28;20040;-83
2023/03/12 09:28:12;;;;;;;12.63;9.57;;;1.30;99.90;;;;;;5107319;28;20039;-83
2023/03/12 09:30:38;;;;;;;15.90;9.70;;;1.30;99.90;;;;;;5103862;28;20412;-82
2023/03/12 09:33:03;;;;;;;10.77;8.50;;;1.30;99.90;;;;;;5105290;28;20036;-80
2023/03/12 09:35:30;;;;;;;14.73;9.30;;;1.30;99.90;;;;;;5105085;28;20043;-81
2023/03/12 09:37:56;;;;;;;12.13;9.10;;;1.30;99.90;;;;;;5102494;28;20406;-81
2023/03/12 09:40:25;;;;;;;12.57;9.17;;;1.30;99.90;;;;;;5089884;28;20595;-82
2023/03/12 09:43:19;;;;;;;11.97;9.00;;;1.30;99.90;;;;;;5103321;28;20127;-81
2023/03/12 09:45:46;;;;;;;;;;;1.30;99.90;;;;;;5090838;28;20039;-81
2023/03/12 09:48:26;;;;;;;11.20;8.33;;;1.30;99.90;;;;;;5102788;28;19920;-82
2023/03/12 09:50:52;;;;;;;11.23;8.70;;;1.30;99.90;;;;;;5106123;28;20035;-82
2023/03/12 09:53:24;;;;;;;12.17;8.43;;;1.30;99.90;;;;;;5107619;28;20043;-82
2023/03/12 09:55:51;;;;;;;12.70;9.43;;;1.30;99.90;;;;;;5127159;27;20051;-82
2023/03/12 09:58:35;;;;;;;15.17;9.23;;;1.30;99.90;;;;;;5108218;28;20047;-82
2023/03/12 10:01:22;;;;;;;14.23;8.65;;;1.40;99.90;;;;;;5114639;27;20043;-82
2023/03/12 10:04:17;;;;;;;11.43;8.43;;;1.50;99.90;;;;;;5093810;28;20055;-81
2023/03/12 10:07:17;;;;;;;11.67;8.93;;;1.40;99.90;;;;;;5110487;28;20027;-81
2023/03/12 10:10:07;;;;;;;12.13;8.40;;;1.50;99.90;;;;;;5106323;28;20034;-81
2023/03/12 10:12:46;;;;;;;11.33;9.07;;;1.50;99.90;;;;;;5112108;28;20036;-82
2023/03/12 10:15:37;;;;;;;12.37;8.80;;;1.60;99.90;;;;;;5141976;27;20035;-82
2023/03/12 10:18:34;;;;;;;11.57;8.73;;;1.60;99.90;;;;;;5106168;27;20043;-82
2023/03/12 10:21:14;;;;;;;12.90;8.80;;;1.70;99.90;;;;;;5107948;27;20055;-82
2023/03/12 10:24:06;;;;;;;11.23;9.27;;;1.60;99.90;;;;;;5132544;27;20048;-82
2023/03/12 10:26:53;;;;;;;11.57;8.90;;;1.70;99.90;;;;;;5101416;28;20047;-82
2023/03/12 10:29:36;;;;;;;11.73;9.00;;;1.80;99.90;;;;;;5104265;27;20078;-82
2023/03/12 10:32:06;;;;;;;13.97;9.93;;;1.70;99.90;;;;;;5099338;28;20054;-82
2023/03/12 10:34:44;;;;;;;12.33;9.47;;;1.80;99.90;;;;;;5089928;28;20490;-82
2023/03/12 10:37:33;;;;;;;12.23;9.60;;;1.80;99.90;;;;;;5106586;27;20047;-82
2023/03/12 10:39:59;;;;;;;12.27;9.67;;;1.80;99.90;;;;;;5104188;27;20149;-82
2023/03/12 10:42:27;;;;;;;11.90;9.30;;;1.80;99.90;;;;;;5092404;27;20145;-82
2023/03/12 10:44:58;;;;;;;12.77;9.80;;;1.90;99.90;;;;;;5136504;27;20044;-82
2023/03/12 10:47:26;;;;;;;13.13;9.80;;;1.90;99.90;;;;;;5099333;27;20123;-82
2023/03/12 10:49:52;;;;;;;13.50;10.03;;;1.90;99.90;;;;;;5097526;27;20111;-82
2023/03/12 10:52:20;;;;;;;13.03;10.23;;;1.90;99.90;;;;;;5097941;28;20088;-82
2023/03/12 10:54:50;;;;;;;12.93;9.90;;;2.00;99.90;;;;;;5110787;28;20093;-82
2023/03/12 10:57:16;;;;;;;14.67;10.77;;;2.10;99.90;;;;;;5105155;28;20036;-82
2023/03/12 10:59:46;;;;;;;14.27;9.97;;;2.10;99.90;;;;;;5120136;27;20070;-82
2023/03/12 11:02:30;;;;;;;13.57;10.40;;;2.20;99.90;;;;;;5090371;28;20050;-82
2023/03/12 11:04:57;;;;;;;14.40;10.30;;;2.20;99.90;;;;;;5131187;27;20031;-82
2023/03/12 11:07:32;;;;;;;13.30;10.73;;;2.20;99.90;;;;;;5090910;28;20495;-82
2023/03/12 11:10:06;;;;;;;16.63;11.33;;;2.20;99.90;;;;;;5098462;28;20134;-81
2023/03/12 11:12:35;;;;;;;14.13;10.37;;;2.30;99.90;;;;;;5108628;28;20043;-82
2023/03/12 11:15:17;;;;;;;13.20;10.13;;;2.30;99.90;;;;;;5089410;28;20054;-82
2023/03/12 11:17:43;;;;;;;15.47;11.33;;;2.30;99.90;;;;;;5102462;28;20498;-82
2023/03/12 11:20:38;;;;;;;17.13;10.87;;;2.40;99.90;;;;;;5111919;28;20050;-82
2023/03/12 11:23:20;;;;;;;14.80;10.48;;;2.40;99.90;;;;;;5092418;28;20051;-81
2023/03/12 11:25:59;;;;;;;15.60;10.90;;;2.50;99.90;;;;;;5105587;28;20554;-81
2023/03/12 11:28:34;;;;;;;15.03;10.47;;;2.50;99.90;;;;;;5111283;28;20036;-81
2023/03/12 11:31:00;;;;;;;17.73;11.45;;;2.60;99.90;;;;;;5111600;28;20132;-81
2023/03/12 11:33:26;;;;;;;15.30;11.27;;;2.70;99.90;;;;;;5111845;28;20497;-81
2023/03/12 11:36:20;;;;;;;15.50;11.47;;;2.70;99.90;;;;;;5094762;28;20066;-81
2023/03/12 11:39:12;;;;;;;18.10;12.02;;;2.80;99.90;;;;;;5111653;28;20063;-81
2023/03/12 11:41:58;;;;;;;15.90;11.50;;;2.90;99.90;;;;;;5109622;28;20043;-81
2023/03/12 11:44:31;;;;;;;18.77;12.93;;;3.00;99.90;;;;;;5112055;28;20036;-81
2023/03/12 11:47:24;;;;;;;14.85;11.23;;;3.10;99.90;;;;;;5127462;27;20032;-81
2023/03/12 11:50:12;;;;;;;14.40;11.35;;;3.10;99.90;;;;;;5111429;28;20039;-81
2023/03/12 11:53:22;;;;;;;19.10;12.07;;;3.20;99.90;;;;;;5109369;28;20118;-81
2023/03/12 11:55:59;;;;;;;18.75;11.73;;;3.30;99.90;;;;;;5056264;28;20043;-82
2023/03/12 11:58:48;;;;;;;16.88;12.25;;;3.40;99.90;;;;;;5107613;28;20036;-81
2023/03/12 12:01:24;;;;;;;19.42;12.57;;;3.40;99.90;;;;;;5100675;28;20036;-81
2023/03/12 12:04:18;;;;;;;27.25;14.65;;;3.50;99.90;;;;;;5085727;28;20494;-81
2023/03/12 12:07:28;;;;;;;23.13;13.27;;;3.60;99.90;;;;;;5109568;28;20047;-81
2023/03/12 12:10:20;;;;;;;19.45;12.60;;;3.70;99.90;;;;;;5070352;28;20183;-81
2023/03/12 12:12:57;;;;;;;22.15;13.55;;;3.70;99.90;;;;;;5104905;28;20062;-81
2023/03/12 12:15:50;;;;;;;19.80;12.85;;;4.00;99.90;;;;;;5082614;28;20031;-81
2023/03/12 12:18:35;;;;;;;22.33;14.02;;;4.10;99.90;;;;;;5103866;28;20054;-81
2023/03/12 12:21:33;;;;;;;20.90;13.48;;;4.20;99.90;;;;;;5096674;28;20071;-80
2023/03/12 12:24:43;;;;;;;19.05;12.55;;;4.30;99.90;;;;;;5099471;27;20048;-81
2023/03/12 12:27:22;;;;;;;19.73;13.50;;;4.40;99.90;;;;;;5070960;28;20143;-81
2023/03/12 12:30:19;;;;;;;22.67;13.82;;;4.50;99.90;;;;;;5101575;28;20518;-81
2023/03/12 12:33:21;;;;;;;20.13;12.55;;;4.70;99.90;;;;;;5099269;28;20040;-81
2023/03/12 12:35:47;;;;;;;21.80;14.15;;;4.80;99.90;;;;;;5101151;28;20096;-81
2023/03/12 12:38:29;;;;;;;22.65;14.05;;;4.90;99.90;;;;;;5102141;28;20039;-82
2023/03/12 12:41:19;;;;;;;22.95;14.32;;;5.00;99.90;;;;;;5102517;28;20070;-82
2023/03/12 12:43:54;;;;;;;23.85;13.75;;;5.10;99.90;;;;;;5108162;28;20028;-81
2023/03/12 12:46:29;;;;;;;23.80;14.60;;;5.20;99.90;;;;;;5088875;28;20354;-81
2023/03/12 12:49:24;;;;;;;28.20;15.20;;;5.30;99.90;;;;;;5106790;28;20059;-80
2023/03/12 12:51:57;;;;;;;24.77;15.82;;;5.50;99.90;;;;;;5101309;28;20487;-81
2023/03/12 12:55:05;;;;;;;26.50;15.30;;;5.50;99.90;;;;;;5106381;28;20039;-81
2023/03/12 12:57:49;;;;;;;20.65;13.77;;;5.70;99.90;;;;;;5067407;28;20054;-81
2023/03/12 13:00:24;;;;;;;;;;;5.80;99.90;;;;;;5102589;28;20046;-81
2023/03/12 13:02:51;;;;;;;26.38;14.30;;;5.90;99.90;;;;;;5105606;28;19955;-81
2023/03/12 13:05:46;;;;;;;28.65;15.18;;;6.10;99.90;;;;;;5103629;28;20114;-81
2023/03/12 13:08:32;;;;;;;41.40;16.27;;;6.20;99.90;;;;;;5092714;28;20103;-81
2023/03/12 13:10:57;;;;;;;27.58;14.90;;;6.30;99.90;;;;;;5103963;28;20032;-80
2023/03/12 13:13:23;;;;;;;31.23;17.25;;;6.30;99.90;;;;;;5107751;28;20158;-80
2023/03/12 13:15:49;;;;;;;33.30;17.35;;;6.40;99.90;;;;;;5101804;28;20040;-80
2023/03/12 13:18:27;;;;;;;32.67;17.33;;;6.50;99.90;;;;;;5103565;28;20035;-81
2023/03/12 13:20:52;;;;;;;30.85;14.98;;;6.70;99.90;;;;;;5106173;28;20554;-81
2023/03/12 13:23:43;;;;;;;35.10;14.40;;;6.80;99.90;;;;;;5108883;28;20126;-81
2023/03/12 13:26:28;;;;;;;25.52;13.60;;;6.90;99.90;;;;;;5089680;28;20032;-80
2023/03/12 13:28:54;;;;;;;32.58;13.13;;;6.90;99.90;;;;;;5105940;28;20040;-81
2023/03/12 13:31:22;;;;;;;25.08;11.88;;;7.00;99.90;;;;;;5088679;28;20047;-81
2023/03/12 13:33:49;;;;;;;26.88;12.45;;;7.10;99.90;;;;;;5106005;28;20039;-80
2023/03/12 13:36:15;;;;;;;33.20;12.43;;;7.20;99.90;;;;;;5108557;28;20484;-81
2023/03/12 13:39:07;;;;;;;28.55;10.77;;;7.20;99.90;;;;;;5106087;28;20043;-81
2023/03/12 13:41:59;;;;;;;30.75;11.35;;;7.40;99.90;;;;;;5068699;28;20568;-81
2023/03/12 13:44:25;;;;;;;35.72;10.43;;;7.40;99.90;;;;;;5103058;28;20055;-81
2023/03/12 13:47:04;;;;;;;26.70;9.55;;;7.50;99.90;;;;;;5111861;28;20034;-80
2023/03/12 13:49:37;;;;;;;27.83;9.15;;;7.60;99.90;;;;;;5087202;28;20036;-80